CPX256 Details

Departure: Princess Juliana International Airport (TNCM)
Arrival: Grantley Adams International Airport (TBPB) at N/A
Route: PJM B520 ANU UA632 BGI
Notes:


Current Weather Information
TNCM 191500Z 08007KT 050V110 9999 SCT018 32/25 Q1018 A3008 NOSIG RMK HZ ALQDS
TBPB 191500Z 15008KT 9999 BKN018 30/24 Q1016 NOSIG